Capitao Leonidas Marques, Brazil
Current Conditions -  °F | °C
As of 6:00 PM on Monday 20 Oct 2014 (Local Time) from SBCA Reporting Station
Few Clouds Few Clouds  
Wind Chill: 77°   Ceiling: Unl
Heat Index: 79°   Visibility: 6mi
Dew Point: 70°   Wind: 9mph
Humidity: 78%   Direction: 160°SSE
Pressure: 30.06"   Gusts: NA
Location:  25.48°S, 53.61°W
Report Text: SBCA 202100Z 16008KT 9999 FEW012 25/21 Q1018
Loading
Personal Weather Stations






























Interactive Weather Map
Tropical Storm Tracking
New forecast layout! Learn more

10-Day Weather Forecast

Advertisements
Track Severe Weather on mobile